Time;durP1;ratioP1;P1;durP2;ratioP2;P2;SDS_P1;SDS_P2;PMS_P1;PMS_P2;Temp;Humidity;BMP_temperature;BMP_pressure;BME280_temperature;BME280_humidity;BME280_pressure;Samples;Min_cycle;Max_cycle;Signal;HPM_P1;HPM_P2
2022/07/09 06:51:50;;;;;;;16.90;9.18;;;17.10;99.90;;;;;;5090991;27;20532;-78
2022/07/09 06:54:16;;;;;;;12.18;8.55;;;17.10;99.90;;;;;;5091116;28;20589;-77
2022/07/09 06:56:41;;;;;;;10.55;8.32;;;17.30;99.90;;;;;;5090927;28;20246;-78
2022/07/09 06:59:07;;;;;;;11.98;8.35;;;17.40;99.90;;;;;;5089477;28;20167;-78
2022/07/09 07:01:33;;;;;;;10.20;8.30;;;17.50;99.90;;;;;;5090693;28;20667;-78
2022/07/09 07:03:58;;;;;;;8.32;7.47;;;17.60;99.90;;;;;;5090701;28;20254;-78
2022/07/09 07:06:24;;;;;;;7.35;6.78;;;17.80;99.90;;;;;;5090507;28;20194;-77
2022/07/09 07:08:49;;;;;;;8.55;7.75;;;17.90;99.90;;;;;;5090575;28;20647;-77
2022/07/09 07:11:15;;;;;;;9.05;7.18;;;18.10;99.90;;;;;;5089158;28;20213;-78
2022/07/09 07:13:40;;;;;;;8.52;7.45;;;18.10;99.90;;;;;;5090506;28;20214;-76
2022/07/09 07:16:06;;;;;;;10.10;7.93;;;18.30;99.90;;;;;;5090247;28;20159;-77
2022/07/09 07:18:32;;;;;;;16.08;7.50;;;18.30;99.90;;;;;;5090392;28;20180;-77
2022/07/09 07:20:57;;;;;;;8.05;6.75;;;18.40;99.90;;;;;;5090300;28;20225;-79
2022/07/09 07:23:23;;;;;;;9.18;6.95;;;18.40;99.90;;;;;;5090299;28;20164;-79
2022/07/09 07:25:49;;;;;;;9.82;6.47;;;18.30;99.90;;;;;;5090350;28;20639;-80
2022/07/09 07:28:14;;;;;;;9.52;7.10;;;18.30;99.90;;;;;;5090052;28;20172;-79
2022/07/09 07:30:40;;;;;;;10.40;6.70;;;18.20;99.90;;;;;;5090063;28;20597;-80
2022/07/09 07:33:05;;;;;;;7.97;6.45;;;18.40;99.90;;;;;;5090124;28;20170;-79
2022/07/09 07:35:31;;;;;;;7.05;6.15;;;18.50;99.90;;;;;;5090184;28;20167;-79
2022/07/09 07:37:58;;;;;;;8.57;5.53;;;18.60;99.90;;;;;;5090121;28;20182;-79
2022/07/09 07:40:24;;;;;;;7.10;6.35;;;18.80;99.90;;;;;;5089996;28;20628;-80
2022/07/09 07:42:50;;;;;;;9.25;5.35;;;19.00;99.90;;;;;;5089965;28;20175;-79
2022/07/09 07:45:16;;;;;;;8.60;4.93;;;19.00;99.90;;;;;;5089857;28;20168;-79
2022/07/09 07:47:41;;;;;;;5.90;5.28;;;19.10;99.90;;;;;;5089797;28;20225;-78
2022/07/09 07:50:07;;;;;;;9.30;4.78;;;19.10;99.90;;;;;;5089538;28;20680;-78
2022/07/09 07:52:33;;;;;;;5.15;4.75;;;19.20;99.90;;;;;;5089898;28;20193;-78
2022/07/09 07:54:58;;;;;;;7.00;4.55;;;19.20;99.90;;;;;;5089725;28;20640;-79
2022/07/09 07:57:24;;;;;;;6.63;4.88;;;19.10;99.90;;;;;;5089769;28;20517;-78
2022/07/09 07:59:50;;;;;;;6.82;5.07;;;19.20;99.90;;;;;;5089873;28;20171;-78
2022/07/09 08:02:15;;;;;;;4.22;3.92;;;19.20;99.90;;;;;;5081629;28;20171;-78
2022/07/09 08:04:41;;;;;;;5.43;4.90;;;19.40;99.90;;;;;;5075997;28;20222;-77
2022/07/09 08:07:06;;;;;;;6.20;4.22;;;19.30;99.90;;;;;;5075930;28;20191;-78
2022/07/09 08:09:33;;;;;;;5.78;4.45;;;19.50;99.90;;;;;;5075859;28;20178;-79
2022/07/09 08:12:00;;;;;;;5.28;4.88;;;19.30;99.90;;;;;;5074689;28;20546;-78
2022/07/09 08:14:26;;;;;;;6.13;5.32;;;19.30;99.90;;;;;;5075664;28;20164;-78
2022/07/09 08:16:51;;;;;;;6.00;4.55;;;19.20;99.90;;;;;;5075885;28;20564;-77
2022/07/09 08:19:17;;;;;;;8.82;5.00;;;19.20;99.90;;;;;;5075728;28;20171;-77
2022/07/09 08:21:42;;;;;;;7.22;4.40;;;19.20;99.90;;;;;;5075688;28;20651;-78
2022/07/09 08:24:08;;;;;;;6.18;4.75;;;19.10;99.90;;;;;;5075702;28;20653;-76
2022/07/09 08:26:34;;;;;;;6.03;4.78;;;19.10;99.90;;;;;;5075658;28;20193;-76
2022/07/09 08:28:59;;;;;;;4.05;3.08;;;19.10;99.90;;;;;;5075627;28;20523;-77
2022/07/09 08:31:26;;;;;;;3.75;3.25;;;19.20;99.90;;;;;;5074257;28;20208;-76
2022/07/09 08:33:52;;;;;;;5.45;3.70;;;19.40;99.90;;;;;;5075547;28;20164;-76
2022/07/09 08:36:18;;;;;;;3.95;3.03;;;19.70;99.90;;;;;;5075523;28;20213;-79
2022/07/09 08:38:44;;;;;;;4.15;3.70;;;19.90;99.90;;;;;;5075517;28;20213;-80
2022/07/09 08:41:09;;;;;;;6.18;3.33;;;19.90;99.90;;;;;;5075428;28;20613;-78
2022/07/09 08:43:40;;;;;;;3.45;2.95;;;20.10;99.90;;;;;;5075306;28;20515;-79
2022/07/09 08:46:06;;;;;;;2.90;2.67;;;20.20;99.90;;;;;;5075386;28;20160;-79
2022/07/09 08:48:36;;;;;;;3.40;2.50;;;20.10;99.90;;;;;;5075298;28;20610;-78
2022/07/09 08:51:02;;;;;;;4.40;3.08;;;20.10;99.90;;;;;;5075027;28;20219;-78
2022/07/09 08:53:29;;;;;;;4.63;2.78;;;20.20;99.90;;;;;;5075143;28;20691;-77
2022/07/09 08:55:55;;;;;;;3.15;2.25;;;20.20;99.90;;;;;;5073661;28;20179;-78
2022/07/09 08:58:21;;;;;;;2.20;1.95;;;20.00;99.90;;;;;;5073668;28;20168;-78
2022/07/09 09:00:49;;;;;;;2.20;2.00;;;19.90;99.90;;;;;;5074976;28;20259;-78
2022/07/09 09:03:14;;;;;;;3.95;2.38;;;20.00;99.90;;;;;;5074936;28;20171;-76
2022/07/09 09:05:40;;;;;;;4.45;2.70;;;20.10;99.90;;;;;;5074821;28;20171;-77
2022/07/09 09:08:19;;;;;;;3.33;2.35;;;19.90;99.90;;;;;;5074908;28;20250;-77
2022/07/09 09:10:46;;;;;;;2.72;2.25;;;20.00;99.90;;;;;;5074675;28;20292;-78
2022/07/09 09:13:15;;;;;;;2.22;2.03;;;20.00;99.90;;;;;;5072456;28;20242;-76
2022/07/09 09:15:41;;;;;;;1.95;1.85;;;19.90;99.90;;;;;;5074251;28;20195;-77
2022/07/09 09:18:06;;;;;;;2.58;2.33;;;20.10;99.90;;;;;;5074177;28;20202;-77
2022/07/09 09:20:32;;;;;;;2.75;2.58;;;20.20;99.90;;;;;;5074403;28;20274;-77
2022/07/09 09:23:02;;;;;;;3.97;2.83;;;20.20;99.90;;;;;;5074040;28;20182;-77
2022/07/09 09:25:28;;;;;;;3.20;2.53;;;20.20;99.90;;;;;;5072905;28;20172;-77
2022/07/09 09:27:55;;;;;;;3.30;3.03;;;20.30;99.90;;;;;;5074158;28;20270;-77
2022/07/09 09:30:22;;;;;;;5.38;3.75;;;20.50;99.90;;;;;;5072600;28;20278;-75
2022/07/09 09:32:59;;;;;;;8.13;5.85;;;20.70;99.90;;;;;;5073893;28;20172;-77
2022/07/09 09:35:26;;;;;;;4.40;3.92;;;20.90;99.90;;;;;;5074077;28;20155;-77
2022/07/09 09:37:52;;;;;;;5.97;4.22;;;21.10;99.90;;;;;;5074136;28;20168;-77
2022/07/09 09:40:17;;;;;;;8.70;3.20;;;21.20;99.90;;;;;;5074161;28;20179;-77
2022/07/09 09:42:46;;;;;;;3.35;2.45;;;21.20;99.90;;;;;;5074154;28;20652;-76
2022/07/09 09:45:16;;;;;;;2.90;2.70;;;21.20;99.90;;;;;;5072824;28;20199;-77
2022/07/09 09:47:49;;;;;;;3.08;2.88;;;21.10;99.90;;;;;;5074093;28;20259;-76
2022/07/09 09:50:20;;;;;;;6.82;2.85;;;21.00;99.90;;;;;;5073795;28;20238;-77
2022/07/09 09:52:48;;;;;;;3.08;2.75;;;20.90;99.90;;;;;;5073914;28;20164;-77
2022/07/09 09:55:15;;;;;;;2.47;2.28;;;21.00;99.90;;;;;;5073908;28;20163;-77
2022/07/09 09:57:41;;;;;;;2.20;2.00;;;21.20;99.90;;;;;;5073764;28;20632;-77
2022/07/09 10:00:08;;;;;;;2.65;2.45;;;21.20;99.90;;;;;;5073937;28;20680;-78
2022/07/09 10:02:37;;;;;;;2.70;2.50;;;21.10;99.90;;;;;;5073651;28;20168;-77
2022/07/09 10:05:03;;;;;;;2.35;2.15;;;21.20;99.90;;;;;;5073786;28;20249;-78
2022/07/09 10:07:31;;;;;;;2.65;1.85;;;21.50;99.90;;;;;;5072300;28;20632;-79
2022/07/09 10:09:58;;;;;;;2.20;2.00;;;21.60;99.90;;;;;;5073640;28;20321;-78
2022/07/09 10:12:32;;;;;;;4.85;1.88;;;21.70;99.90;;;;;;5073691;28;20247;-79
2022/07/09 10:14:57;;;;;;;1.80;1.67;;;21.80;99.90;;;;;;5073728;28;20567;-79
2022/07/09 10:17:25;;;;;;;2.08;1.95;;;21.90;99.90;;;;;;5073698;28;20198;-78
2022/07/09 10:19:52;;;;;;;2.03;1.92;;;21.90;99.90;;;;;;5073445;28;20176;-77
2022/07/09 10:22:18;;;;;;;2.10;2.00;;;21.80;99.90;;;;;;5073426;28;20174;-78
2022/07/09 10:24:46;;;;;;;3.28;2.30;;;21.70;99.90;;;;;;5072080;28;20559;-78
2022/07/09 10:27:12;;;;;;;2.38;2.17;;;21.70;99.90;;;;;;5073497;28;20240;-78
2022/07/09 10:29:56;;;;;;;2.67;2.47;;;21.70;99.90;;;;;;5073358;28;20218;-78
2022/07/09 10:32:26;;;;;;;2.70;2.30;;;21.80;99.90;;;;;;5073413;28;20167;-78
2022/07/09 10:34:56;;;;;;;4.72;2.40;;;21.80;99.90;;;;;;5073406;28;20625;-78
2022/07/09 10:37:34;;;;;;;4.15;2.25;;;21.60;99.90;;;;;;5073443;28;20160;-77
2022/07/09 10:40:13;;;;;;;2.60;2.42;;;21.40;99.90;;;;;;5072027;28;20203;-79
2022/07/09 10:42:40;;;;;;;2.10;1.90;;;21.40;99.90;;;;;;5073339;28;20527;-77
2022/07/09 10:45:17;;;;;;;2.50;2.30;;;21.50;99.90;;;;;;5073250;28;20174;-78
2022/07/09 10:47:46;;;;;;;3.72;2.45;;;21.60;99.90;;;;;;5071911;28;20199;-79
2022/07/09 10:50:12;;;;;;;5.25;2.10;;;21.60;99.90;;;;;;5072921;28;20211;-78
2022/07/09 10:52:38;;;;;;;3.13;1.90;;;21.70;99.90;;;;;;5073160;28;20172;-76
2022/07/09 10:55:04;;;;;;;2.67;1.92;;;21.90;99.90;;;;;;5072739;28;20175;-79
2022/07/09 10:57:36;;;;;;;1.88;1.77;;;22.10;99.90;;;;;;5073178;28;20164;-72
2022/07/09 11:00:02;;;;;;;2.53;1.60;;;22.10;99.90;;;;;;5071282;28;20235;-72
2022/07/09 11:02:28;;;;;;;1.60;1.50;;;22.10;99.90;;;;;;5071451;28;20179;-72
2022/07/09 11:04:53;;;;;;;1.42;1.42;;;22.00;99.90;;;;;;5071804;28;20499;-71
2022/07/09 11:07:23;;;;;;;2.75;2.17;;;22.10;99.90;;;;;;5072941;28;20194;-72
2022/07/09 11:09:50;;;;;;;1.50;1.30;;;22.10;99.90;;;;;;5073315;28;20199;-72
2022/07/09 11:12:20;;;;;;;1.45;1.35;;;22.10;99.90;;;;;;5073262;28;20170;-72
2022/07/09 11:14:47;;;;;;;1.80;1.40;;;22.10;99.90;;;;;;5073085;28;20179;-72
2022/07/09 11:17:20;;;;;;;1.77;1.67;;;22.10;99.90;;;;;;5073138;28;20160;-72
2022/07/09 11:19:48;;;;;;;1.73;1.63;;;22.20;99.90;;;;;;5072969;28;20186;-72
2022/07/09 11:22:15;;;;;;;1.48;1.48;;;22.40;99.90;;;;;;5073307;28;20185;-71
2022/07/09 11:24:41;;;;;;;1.30;1.30;;;22.30;99.90;;;;;;5072965;28;20168;-72
2022/07/09 11:27:08;;;;;;;2.70;1.90;;;22.20;99.90;;;;;;5072858;28;20183;-71
2022/07/09 11:29:35;;;;;;;4.47;1.65;;;22.30;99.90;;;;;;5072780;28;20171;-71
2022/07/09 11:32:01;;;;;;;1.55;1.45;;;22.10;99.90;;;;;;5071534;28;20171;-72
2022/07/09 11:34:29;;;;;;;7.63;1.58;;;22.10;99.90;;;;;;5071538;28;20176;-72
2022/07/09 11:36:57;;;;;;;2.67;2.03;;;22.30;99.90;;;;;;5073869;28;20651;-72
2022/07/09 11:39:32;;;;;;;1.60;1.50;;;22.40;99.90;;;;;;5076476;28;20506;-76
2022/07/09 11:41:59;;;;;;;2.15;1.40;;;22.20;99.90;;;;;;5076869;28;20160;-75
2022/07/09 11:44:35;;;;;;;2.22;1.73;;;22.30;99.90;;;;;;5075583;28;20530;-76
2022/07/09 11:47:09;;;;;;;2.08;1.60;;;22.30;99.90;;;;;;5077173;28;20168;-77
2022/07/09 11:49:43;;;;;;;1.73;1.63;;;22.30;99.90;;;;;;5075618;28;20163;-75
2022/07/09 11:52:24;;;;;;;1.33;1.33;;;22.10;99.90;;;;;;5076765;28;20179;-76
2022/07/09 11:54:58;;;;;;;1.40;1.40;;;22.10;99.90;;;;;;5075096;28;20182;-76
2022/07/09 11:57:24;;;;;;;2.10;1.50;;;22.30;99.90;;;;;;5076273;28;20247;-74
2022/07/09 11:59:50;;;;;;;1.98;1.85;;;22.50;99.90;;;;;;5076270;28;20175;-73
2022/07/09 12:02:28;;;;;;;2.95;1.92;;;22.50;99.90;;;;;;5076166;28;20156;-74
2022/07/09 12:04:54;;;;;;;1.88;1.77;;;22.50;99.90;;;;;;5076115;28;20521;-74
2022/07/09 12:07:20;;;;;;;1.85;1.75;;;22.60;99.90;;;;;;5076040;28;20592;-75
2022/07/09 12:09:46;;;;;;;1.50;1.50;;;22.70;99.90;;;;;;5076117;28;20202;-74
2022/07/09 12:12:11;;;;;;;1.50;1.40;;;22.60;99.90;;;;;;5075763;28;20580;-75
2022/07/09 12:14:37;;;;;;;2.17;1.95;;;22.50;99.90;;;;;;5075753;28;20638;-72
2022/07/09 12:17:03;;;;;;;2.05;1.95;;;22.20;99.90;;;;;;5074650;28;20168;-72
2022/07/09 12:19:29;;;;;;;2.10;2.00;;;21.90;99.90;;;;;;5075559;28;20156;-74
2022/07/09 12:21:55;;;;;;;2.10;2.00;;;21.70;99.90;;;;;;5075649;28;20179;-75
2022/07/09 12:24:20;;;;;;;2.03;1.92;;;21.50;99.90;;;;;;5075623;28;20186;-74
2022/07/09 12:26:46;;;;;;;2.40;2.00;;;21.40;99.90;;;;;;5075585;28;20648;-74
2022/07/09 12:29:11;;;;;;;4.40;2.00;;;21.40;99.90;;;;;;5074235;28;20175;-73
2022/07/09 12:31:37;;;;;;;2.22;2.13;;;21.30;99.90;;;;;;5075441;28;20204;-74
2022/07/09 12:34:04;;;;;;;2.10;1.98;;;21.30;99.90;;;;;;5075475;28;20164;-73
2022/07/09 12:36:31;;;;;;;2.55;2.08;;;21.30;99.90;;;;;;5075553;28;20247;-74
2022/07/09 12:38:56;;;;;;;1.80;1.70;;;21.40;99.90;;;;;;5075404;28;20171;-74
2022/07/09 12:41:22;;;;;;;2.10;1.83;;;21.70;99.90;;;;;;5075396;28;20172;-74
2022/07/09 12:43:47;;;;;;;2.10;2.00;;;22.00;99.90;;;;;;5075349;28;20250;-73
2022/07/09 12:46:13;;;;;;;1.88;1.77;;;22.10;99.90;;;;;;5075598;28;20176;-73
2022/07/09 12:48:38;;;;;;;2.67;2.30;;;22.00;99.90;;;;;;5075114;28;20172;-74
2022/07/09 12:51:04;;;;;;;2.10;1.98;;;21.80;99.90;;;;;;5074956;28;20571;-74
2022/07/09 12:53:30;;;;;;;4.90;2.60;;;21.70;99.90;;;;;;5074829;28;20176;-73
2022/07/09 12:55:55;;;;;;;2.20;2.10;;;21.80;99.90;;;;;;5074988;28;20164;-74
2022/07/09 12:58:21;;;;;;;3.65;2.60;;;21.70;99.90;;;;;;5075018;28;20168;-73
2022/07/09 13:00:46;;;;;;;3.60;2.83;;;21.60;99.90;;;;;;5074972;28;20183;-74
2022/07/09 13:03:12;;;;;;;10.40;3.00;;;21.50;99.90;;;;;;5074953;28;20519;-74
2022/07/09 13:05:37;;;;;;;2.90;2.70;;;21.50;99.90;;;;;;5074798;28;20172;-74
2022/07/09 13:08:03;;;;;;;2.85;2.72;;;21.40;99.90;;;;;;5074699;28;20176;-74
2022/07/09 13:10:30;;;;;;;3.17;2.88;;;21.40;99.90;;;;;;5074645;28;20199;-73
2022/07/09 13:12:55;;;;;;;4.28;3.88;;;21.40;99.90;;;;;;5074693;28;20250;-74
2022/07/09 13:15:22;;;;;;;4.43;3.40;;;21.30;99.90;;;;;;5074753;28;20251;-73
2022/07/09 13:17:48;;;;;;;3.33;3.13;;;21.20;99.90;;;;;;5074639;28;20163;-74
2022/07/09 13:20:14;;;;;;;9.05;3.28;;;21.10;99.90;;;;;;5074557;28;20530;-74
2022/07/09 13:22:39;;;;;;;3.80;3.50;;;21.10;99.90;;;;;;5073252;28;20180;-73
2022/07/09 13:25:05;;;;;;;3.63;3.33;;;21.00;99.90;;;;;;5074446;28;20225;-74
2022/07/09 13:27:31;;;;;;;3.55;3.35;;;20.90;99.90;;;;;;5074133;28;20179;-74
2022/07/09 13:29:57;;;;;;;6.50;4.30;;;20.80;99.90;;;;;;5074372;28;20188;-74
2022/07/09 13:32:23;;;;;;;6.43;5.97;;;20.60;99.90;;;;;;5074388;28;20222;-73
2022/07/09 13:34:51;;;;;;;6.03;5.55;;;20.30;99.90;;;;;;5074345;28;20585;-73
2022/07/09 13:37:17;;;;;;;8.25;7.55;;;19.80;99.90;;;;;;5072908;28;20179;-75
2022/07/09 13:49:31;;;;;;;11.70;10.57;;;18.50;99.90;;;;;;5070656;28;20550;-74
2022/07/09 13:51:57;;;;;;;12.50;11.45;;;18.50;99.90;;;;;;5070606;28;20599;-73
2022/07/09 13:54:23;;;;;;;13.02;11.15;;;18.60;99.90;;;;;;5070561;28;20168;-74
2022/07/09 13:56:49;;;;;;;12.23;11.02;;;18.90;99.90;;;;;;5070563;28;20255;-74
2022/07/09 13:59:14;;;;;;;14.80;10.32;;;19.40;99.90;;;;;;5070477;28;20171;-71
2022/07/09 14:01:40;;;;;;;13.75;12.35;;;19.50;99.90;;;;;;5070565;28;20172;-72
2022/07/09 14:04:06;;;;;;;11.18;10.13;;;19.50;99.90;;;;;;5070377;28;20176;-72
2022/07/09 14:06:31;;;;;;;9.80;8.30;;;19.40;99.90;;;;;;5070325;28;20204;-74
2022/07/09 14:08:57;;;;;;;9.32;8.48;;;19.50;99.90;;;;;;5070552;28;20203;-73
2022/07/09 14:11:23;;;;;;;9.20;8.55;;;19.70;99.90;;;;;;5070283;28;20160;-74
2022/07/09 14:13:51;;;;;;;7.43;6.82;;;19.90;99.90;;;;;;5070229;28;20209;-73
2022/07/09 14:16:17;;;;;;;7.70;6.85;;;20.50;99.90;;;;;;5070169;28;20171;-74
2022/07/09 14:18:42;;;;;;;6.85;6.32;;;21.00;99.90;;;;;;5070083;28;20168;-74
2022/07/09 14:21:09;;;;;;;5.45;5.00;;;21.40;99.90;;;;;;5070110;28;20653;-74
2022/07/09 14:23:34;;;;;;;4.88;4.57;;;21.60;99.90;;;;;;5070002;28;20176;-74
2022/07/09 14:26:00;;;;;;;5.45;4.97;;;21.80;99.90;;;;;;5070013;28;20168;-73
2022/07/09 14:28:25;;;;;;;4.65;4.18;;;21.90;99.90;;;;;;5069772;28;20222;-74
2022/07/09 14:30:51;;;;;;;3.85;3.65;;;22.20;99.90;;;;;;5069881;28;20179;-74
2022/07/09 14:33:16;;;;;;;3.55;3.35;;;22.60;99.90;;;;;;5069768;28;20195;-74
2022/07/09 14:35:42;;;;;;;3.47;3.17;;;22.80;99.90;;;;;;5069720;28;20183;-74
2022/07/09 14:38:08;;;;;;;3.72;2.90;;;22.60;99.90;;;;;;5069567;28;20168;-78
2022/07/09 14:40:33;;;;;;;3.20;2.97;;;22.40;99.90;;;;;;5069441;28;20649;-73
2022/07/09 14:42:59;;;;;;;3.65;3.33;;;22.70;99.90;;;;;;5069249;28;20225;-73
2022/07/09 14:45:25;;;;;;;3.75;3.45;;;22.60;99.90;;;;;;5069478;28;20195;-73
2022/07/09 14:47:53;;;;;;;5.65;4.00;;;22.60;99.90;;;;;;5069186;28;20272;-74
2022/07/09 14:50:18;;;;;;;4.10;3.33;;;22.40;99.90;;;;;;5068039;28;20168;-73
2022/07/09 14:52:47;;;;;;;3.90;3.60;;;22.70;99.90;;;;;;5068104;28;20179;-73
2022/07/09 14:55:14;;;;;;;4.82;4.47;;;22.80;99.90;;;;;;5069267;28;20175;-73
2022/07/09 14:57:40;;;;;;;4.80;4.40;;;22.70;99.90;;;;;;5069260;28;20178;-74
2022/07/09 15:00:06;;;;;;;4.78;4.47;;;22.90;99.90;;;;;;5060424;28;20172;-74
2022/07/09 15:02:32;;;;;;;4.55;4.25;;;22.90;99.90;;;;;;5055722;28;20168;-72
2022/07/09 15:04:57;;;;;;;4.30;4.10;;;23.00;99.90;;;;;;5055799;28;20704;-73
2022/07/09 15:07:24;;;;;;;5.05;4.63;;;23.40;99.90;;;;;;5055714;28;20199;-72
2022/07/09 15:09:49;;;;;;;4.07;3.78;;;23.60;99.90;;;;;;5054777;28;20505;-73
2022/07/09 15:12:15;;;;;;;4.00;3.60;;;23.80;99.90;;;;;;5054477;28;20267;-72
2022/07/09 15:14:41;;;;;;;3.20;3.10;;;23.80;99.90;;;;;;5054415;28;20168;-72
2022/07/09 15:17:06;;;;;;;3.95;3.47;;;23.60;99.90;;;;;;5055620;28;20176;-72
2022/07/09 15:19:32;;;;;;;3.33;3.13;;;23.40;99.90;;;;;;5055515;28;20500;-73
2022/07/09 15:21:58;;;;;;;3.22;3.03;;;23.40;99.90;;;;;;5055604;28;20169;-73
2022/07/09 15:24:23;;;;;;;4.07;3.88;;;23.50;99.90;;;;;;5055456;28;20610;-72
2022/07/09 15:26:50;;;;;;;3.42;3.13;;;23.20;99.90;;;;;;5055461;28;20165;-73
2022/07/09 15:29:15;;;;;;;2.80;2.70;;;23.00;99.90;;;;;;5055335;28;20188;-72
2022/07/09 15:31:41;;;;;;;2.60;2.38;;;22.80;99.90;;;;;;5055353;28;20168;-72
2022/07/09 15:34:06;;;;;;;2.35;2.20;;;22.50;99.90;;;;;;5055375;28;20299;-71
2022/07/09 15:36:33;;;;;;;2.58;2.38;;;22.00;99.90;;;;;;5055386;28;20161;-71
2022/07/09 15:38:58;;;;;;;2.05;1.95;;;22.10;99.90;;;;;;5055306;28;20171;-71
2022/07/09 15:41:24;;;;;;;2.17;2.08;;;22.20;99.90;;;;;;5055190;28;20176;-71
2022/07/09 15:43:49;;;;;;;2.67;2.47;;;22.30;99.90;;;;;;5055150;28;20172;-71
2022/07/09 15:46:17;;;;;;;3.38;2.13;;;22.50;99.90;;;;;;5055678;28;20196;-70
2022/07/09 15:48:42;;;;;;;2.05;1.95;;;22.50;99.90;;;;;;5055653;28;20662;-71
2022/07/09 15:51:08;;;;;;;1.80;1.70;;;22.30;99.90;;;;;;5054997;28;20260;-72
2022/07/09 15:53:34;;;;;;;2.00;1.90;;;22.10;99.90;;;;;;5055040;28;20179;-72
2022/07/09 15:55:59;;;;;;;2.15;1.73;;;21.90;99.90;;;;;;5054966;28;20165;-72
2022/07/09 15:58:25;;;;;;;2.03;1.48;;;21.70;99.90;;;;;;5054940;28;20176;-72
2022/07/09 16:00:51;;;;;;;1.50;1.40;;;21.60;99.90;;;;;;5054774;28;20176;-72
2022/07/09 16:03:16;;;;;;;1.70;1.60;;;22.00;99.90;;;;;;5054848;28;20316;-72
2022/07/09 16:05:42;;;;;;;2.67;1.80;;;22.30;99.90;;;;;;5054650;28;20222;-72
2022/07/09 16:08:08;;;;;;;3.58;1.70;;;22.30;99.90;;;;;;5053290;28;20207;-71
2022/07/09 16:10:33;;;;;;;2.20;1.85;;;22.30;99.90;;;;;;5054192;28;20161;-72
2022/07/09 16:12:59;;;;;;;1.70;1.60;;;22.10;99.90;;;;;;5054010;28;20232;-72
2022/07/09 16:15:26;;;;;;;1.63;1.52;;;21.90;99.90;;;;;;5054478;28;20235;-72
2022/07/09 16:17:53;;;;;;;2.35;1.80;;;22.20;99.90;;;;;;5054549;28;20167;-72
2022/07/09 16:20:22;;;;;;;1.77;1.65;;;22.20;99.90;;;;;;5054613;28;20618;-71
2022/07/09 16:22:48;;;;;;;1.70;1.60;;;22.20;99.90;;;;;;5053630;28;20644;-72
2022/07/09 16:25:14;;;;;;;1.70;1.50;;;22.00;99.90;;;;;;5054399;28;20200;-71
2022/07/09 16:27:41;;;;;;;1.55;1.45;;;21.80;99.90;;;;;;5054134;28;20192;-72
2022/07/09 16:30:08;;;;;;;3.28;1.50;;;21.70;99.90;;;;;;5054075;28;20184;-72
2022/07/09 16:32:33;;;;;;;1.45;1.40;;;21.70;99.90;;;;;;5052949;28;20641;-72
2022/07/09 16:34:59;;;;;;;1.65;1.55;;;21.80;99.90;;;;;;5054138;28;20172;-72
2022/07/09 16:37:26;;;;;;;1.52;1.42;;;21.80;99.90;;;;;;5054135;28;20239;-72
2022/07/09 16:39:55;;;;;;;2.58;1.88;;;21.70;99.90;;;;;;5053998;28;20247;-71
2022/07/09 16:42:21;;;;;;;1.83;1.50;;;21.60;99.90;;;;;;5053936;28;20180;-72
2022/07/09 16:44:46;;;;;;;3.53;1.45;;;21.70;99.90;;;;;;5053809;28;20218;-72
2022/07/09 16:47:12;;;;;;;1.52;1.52;;;22.00;99.90;;;;;;5052308;28;20593;-72
2022/07/09 16:49:38;;;;;;;2.17;1.58;;;22.30;99.90;;;;;;5053855;28;20251;-72
2022/07/09 16:52:04;;;;;;;2.35;1.63;;;22.70;99.90;;;;;;5053790;28;20164;-72
2022/07/09 16:54:29;;;;;;;1.50;1.40;;;23.30;99.90;;;;;;5053843;28;20684;-71
2022/07/09 16:56:55;;;;;;;1.63;1.55;;;23.60;99.90;;;;;;5053720;28;20172;-72
2022/07/09 16:59:22;;;;;;;1.40;1.20;;;23.40;99.90;;;;;;5053622;28;20195;-72
2022/07/09 17:01:48;;;;;;;1.40;1.30;;;23.30;99.90;;;;;;5053665;28;20169;-72
2022/07/09 17:04:16;;;;;;;1.63;1.52;;;22.70;99.90;;;;;;5053609;28;20180;-71
2022/07/09 17:06:43;;;;;;;3.00;1.48;;;22.50;99.90;;;;;;5053552;28;20168;-71
2022/07/09 17:09:08;;;;;;;2.42;1.45;;;22.60;99.90;;;;;;5053477;28;20196;-71
2022/07/09 17:11:34;;;;;;;1.13;1.13;;;22.50;99.90;;;;;;5053545;28;20172;-72
2022/07/09 17:13:59;;;;;;;3.70;1.45;;;22.40;99.90;;;;;;5053496;28;20617;-72
2022/07/09 17:16:25;;;;;;;3.17;1.63;;;22.10;99.90;;;;;;5053425;28;20610;-71
2022/07/09 17:18:50;;;;;;;1.95;1.52;;;21.90;99.90;;;;;;5053443;28;20179;-72
2022/07/09 17:21:16;;;;;;;1.40;1.30;;;22.00;99.90;;;;;;5053411;28;20168;-72
2022/07/09 17:23:42;;;;;;;1.10;1.10;;;22.00;99.90;;;;;;5053147;28;20164;-72
2022/07/09 17:26:07;;;;;;;1.60;1.40;;;21.90;99.90;;;;;;5053301;28;20626;-71
2022/07/09 17:28:33;;;;;;;1.45;1.23;;;22.00;99.90;;;;;;5053135;28;20200;-72
2022/07/09 17:30:58;;;;;;;2.70;1.10;;;22.40;99.90;;;;;;5051906;28;20222;-72
2022/07/09 17:33:24;;;;;;;1.98;1.48;;;22.60;99.90;;;;;;5053313;28;20218;-73
2022/07/09 17:35:50;;;;;;;4.32;1.23;;;22.60;99.90;;;;;;5053183;28;20168;-75
2022/07/09 17:38:16;;;;;;;1.25;1.15;;;22.70;99.90;;;;;;5053169;28;20164;-75
2022/07/09 17:40:42;;;;;;;1.17;1.10;;;22.80;99.90;;;;;;5053139;28;20169;-76
2022/07/09 17:43:08;;;;;;;1.25;1.25;;;22.90;99.90;;;;;;5053014;28;20168;-75
2022/07/09 17:45:33;;;;;;;2.75;1.00;;;22.70;99.90;;;;;;5053114;28;20172;-75
2022/07/09 17:47:59;;;;;;;1.02;1.02;;;22.60;99.90;;;;;;5051408;28;20216;-76
2022/07/09 17:50:24;;;;;;;2.10;0.98;;;22.70;99.90;;;;;;5053051;28;20169;-76
2022/07/09 17:52:50;;;;;;;1.25;1.15;;;22.70;99.90;;;;;;5053041;28;20168;-78
2022/07/09 17:55:22;;;;;;;1.58;1.00;;;22.60;99.90;;;;;;5052947;28;20247;-77
2022/07/09 17:57:49;;;;;;;1.85;1.30;;;22.40;99.90;;;;;;5052970;28;20176;-78
2022/07/09 18:00:17;;;;;;;1.25;1.13;;;22.20;99.90;;;;;;5053060;28;20187;-78
2022/07/09 18:02:43;;;;;;;1.77;1.48;;;22.00;99.90;;;;;;5052895;28;20167;-80
2022/07/09 18:05:09;;;;;;;1.50;1.40;;;21.80;99.90;;;;;;5052823;28;20199;-78
2022/07/09 18:07:36;;;;;;;1.63;1.50;;;21.40;99.90;;;;;;5052609;28;20279;-78
2022/07/09 18:10:02;;;;;;;9.55;1.50;;;21.20;99.90;;;;;;5052630;28;20646;-78
2022/07/09 18:12:28;;;;;;;4.80;1.95;;;21.10;99.90;;;;;;5052868;28;20196;-79
2022/07/09 18:14:53;;;;;;;3.53;1.60;;;21.00;99.90;;;;;;5052749;28;20634;-78
2022/07/09 18:17:19;;;;;;;2.33;1.75;;;21.00;99.90;;;;;;5052747;28;20181;-79
2022/07/09 18:19:44;;;;;;;3.05;1.67;;;20.80;99.90;;;;;;5052774;28;20594;-80
2022/07/09 18:22:10;;;;;;;4.50;1.50;;;20.50;99.90;;;;;;5052710;28;20165;-80
2022/07/09 18:24:35;;;;;;;1.95;1.83;;;20.40;99.90;;;;;;5052670;28;20171;-77
2022/07/09 18:27:01;;;;;;;3.13;1.60;;;20.50;99.90;;;;;;5052631;28;20574;-80
2022/07/09 18:29:26;;;;;;;1.58;1.42;;;20.40;99.90;;;;;;5052515;28;20197;-80
2022/07/09 18:31:52;;;;;;;4.35;1.80;;;20.40;99.90;;;;;;5052640;28;20218;-80
2022/07/09 18:34:18;;;;;;;5.53;1.83;;;20.30;99.90;;;;;;5051863;28;20686;-81
2022/07/09 18:36:43;;;;;;;9.15;1.73;;;20.20;99.90;;;;;;5056402;28;20169;-80
2022/07/09 18:39:09;;;;;;;2.25;1.70;;;20.00;99.90;;;;;;5056316;28;20164;-78
2022/07/09 18:41:35;;;;;;;2.20;1.67;;;20.00;99.90;;;;;;5056312;28;20180;-79
2022/07/09 18:44:01;;;;;;;4.28;2.10;;;19.90;99.90;;;;;;5056264;28;20210;-80
2022/07/09 18:46:26;;;;;;;3.08;1.67;;;19.80;99.90;;;;;;5054935;28;20172;-80
2022/07/09 18:48:52;;;;;;;3.22;1.40;;;19.70;99.90;;;;;;5054604;28;20227;-80
2022/07/09 18:51:18;;;;;;;4.30;1.70;;;19.60;99.90;;;;;;5056148;28;20172;-81
2022/07/09 18:53:43;;;;;;;2.28;1.60;;;19.40;99.90;;;;;;5056070;28;20165;-79
2022/07/09 18:56:10;;;;;;;2.40;1.95;;;19.40;99.90;;;;;;5054741;28;20177;-81
2022/07/09 18:58:36;;;;;;;7.20;1.60;;;19.30;99.90;;;;;;5056030;28;20180;-79
2022/07/09 19:01:01;;;;;;;2.42;1.60;;;19.20;99.90;;;;;;5054723;28;20176;-80
2022/07/09 19:03:27;;;;;;;4.93;1.77;;;19.10;99.90;;;;;;5054717;28;20532;-80
2022/07/09 19:05:52;;;;;;;5.53;1.58;;;19.10;99.90;;;;;;5054603;28;20230;-80
2022/07/09 19:08:18;;;;;;;4.93;1.73;;;19.00;99.90;;;;;;5055731;28;20196;-80
2022/07/09 19:10:44;;;;;;;6.03;1.70;;;18.80;99.90;;;;;;5055850;28;20195;-80
2022/07/09 19:13:09;;;;;;;5.63;1.70;;;18.70;99.90;;;;;;5054489;28;20219;-80
2022/07/09 19:15:35;;;;;;;7.45;2.08;;;18.50;99.90;;;;;;5055645;28;20172;-80
